sensor_id;sensor_type;location;lat;lon;timestamp;temperature;humidity
15765;DHT22;7983;50.744;7.086;2023-06-22T00:00:13;24.40;99.90
15765;DHT22;7983;50.744;7.086;2023-06-22T00:02:41;24.40;99.90
15765;DHT22;7983;50.744;7.086;2023-06-22T00:05:07;24.40;99.90
15765;DHT22;7983;50.744;7.086;2023-06-22T00:07:32;24.40;99.90
15765;DHT22;7983;50.744;7.086;2023-06-22T00:10:03;24.40;99.90
15765;DHT22;7983;50.744;7.086;2023-06-22T00:12:29;24.30;99.90
15765;DHT22;7983;50.744;7.086;2023-06-22T00:14:57;24.30;99.90
15765;DHT22;7983;50.744;7.086;2023-06-22T00:17:23;24.30;99.90
15765;DHT22;7983;50.744;7.086;2023-06-22T00:19:48;24.30;99.90
15765;DHT22;7983;50.744;7.086;2023-06-22T00:22:19;24.30;99.90
15765;DHT22;7983;50.744;7.086;2023-06-22T00:24:54;24.30;99.90
15765;DHT22;7983;50.744;7.086;2023-06-22T00:27:20;24.30;99.90
15765;DHT22;7983;50.744;7.086;2023-06-22T00:29:45;24.20;99.90
15765;DHT22;7983;50.744;7.086;2023-06-22T00:32:11;24.20;99.90
15765;DHT22;7983;50.744;7.086;2023-06-22T00:34:39;24.20;99.90
15765;DHT22;7983;50.744;7.086;2023-06-22T00:37:05;24.20;99.90
15765;DHT22;7983;50.744;7.086;2023-06-22T00:39:33;24.20;99.90
15765;DHT22;7983;50.744;7.086;2023-06-22T00:42:03;24.20;99.90
15765;DHT22;7983;50.744;7.086;2023-06-22T00:44:31;24.20;99.90
15765;DHT22;7983;50.744;7.086;2023-06-22T00:46:58;24.10;99.90
15765;DHT22;7983;50.744;7.086;2023-06-22T00:49:25;24.10;99.90
15765;DHT22;7983;50.744;7.086;2023-06-22T00:51:55;24.10;99.90
15765;DHT22;7983;50.744;7.086;2023-06-22T00:54:21;24.10;99.90
15765;DHT22;7983;50.744;7.086;2023-06-22T00:56:53;24.10;99.90
15765;DHT22;7983;50.744;7.086;2023-06-22T00:59:21;24.10;99.90
15765;DHT22;7983;50.744;7.086;2023-06-22T01:01:47;24.00;99.90
15765;DHT22;7983;50.744;7.086;2023-06-22T01:04:13;24.00;99.90
15765;DHT22;7983;50.744;7.086;2023-06-22T01:06:47;24.00;99.90
15765;DHT22;7983;50.744;7.086;2023-06-22T01:09:21;24.00;99.90
15765;DHT22;7983;50.744;7.086;2023-06-22T01:11:57;24.00;99.90
15765;DHT22;7983;50.744;7.086;2023-06-22T01:14:43;24.00;99.90
15765;DHT22;7983;50.744;7.086;2023-06-22T01:17:13;24.00;99.90
15765;DHT22;7983;50.744;7.086;2023-06-22T01:19:45;24.00;99.90
15765;DHT22;7983;50.744;7.086;2023-06-22T01:22:18;24.00;99.90
15765;DHT22;7983;50.744;7.086;2023-06-22T01:25:09;23.90;99.90
15765;DHT22;7983;50.744;7.086;2023-06-22T01:30:11;24.00;99.90
15765;DHT22;7983;50.744;7.086;2023-06-22T01:32:40;24.00;99.90
15765;DHT22;7983;50.744;7.086;2023-06-22T01:35:10;23.90;99.90
15765;DHT22;7983;50.744;7.086;2023-06-22T01:37:37;23.90;99.90
15765;DHT22;7983;50.744;7.086;2023-06-22T01:40:05;23.90;99.90
15765;DHT22;7983;50.744;7.086;2023-06-22T01:42:34;23.90;99.90
15765;DHT22;7983;50.744;7.086;2023-06-22T01:45:05;23.90;99.90
15765;DHT22;7983;50.744;7.086;2023-06-22T01:47:32;23.90;99.90
15765;DHT22;7983;50.744;7.086;2023-06-22T01:50:03;23.90;99.90
15765;DHT22;7983;50.744;7.086;2023-06-22T01:52:29;23.90;99.90
15765;DHT22;7983;50.744;7.086;2023-06-22T01:54:58;23.90;99.90
15765;DHT22;7983;50.744;7.086;2023-06-22T01:57:26;23.90;99.90
15765;DHT22;7983;50.744;7.086;2023-06-22T02:00:04;23.90;99.90
15765;DHT22;7983;50.744;7.086;2023-06-22T02:05:24;23.80;99.90
15765;DHT22;7983;50.744;7.086;2023-06-22T02:08:11;23.80;99.90
15765;DHT22;7983;50.744;7.086;2023-06-22T02:10:41;23.80;99.90
15765;DHT22;7983;50.744;7.086;2023-06-22T02:13:08;23.70;99.90
15765;DHT22;7983;50.744;7.086;2023-06-22T02:15:34;23.70;99.90
15765;DHT22;7983;50.744;7.086;2023-06-22T02:18:01;23.70;99.90
15765;DHT22;7983;50.744;7.086;2023-06-22T02:20:26;23.70;99.90
15765;DHT22;7983;50.744;7.086;2023-06-22T02:22:54;23.70;99.90
15765;DHT22;7983;50.744;7.086;2023-06-22T02:25:20;23.70;99.90
15765;DHT22;7983;50.744;7.086;2023-06-22T02:27:51;23.70;99.90
15765;DHT22;7983;50.744;7.086;2023-06-22T02:30:19;23.70;99.90
15765;DHT22;7983;50.744;7.086;2023-06-22T02:32:44;23.70;99.90
15765;DHT22;7983;50.744;7.086;2023-06-22T02:35:10;23.70;99.90
15765;DHT22;7983;50.744;7.086;2023-06-22T02:37:43;23.70;99.90
15765;DHT22;7983;50.744;7.086;2023-06-22T02:40:14;23.60;99.90
15765;DHT22;7983;50.744;7.086;2023-06-22T02:42:40;23.60;99.90
15765;DHT22;7983;50.744;7.086;2023-06-22T02:45:09;23.60;99.90
15765;DHT22;7983;50.744;7.086;2023-06-22T02:47:34;23.60;99.90
15765;DHT22;7983;50.744;7.086;2023-06-22T02:50:00;23.60;99.90
15765;DHT22;7983;50.744;7.086;2023-06-22T02:52:26;23.60;99.90
15765;DHT22;7983;50.744;7.086;2023-06-22T02:54:52;23.60;99.90
15765;DHT22;7983;50.744;7.086;2023-06-22T02:57:18;23.60;99.90
15765;DHT22;7983;50.744;7.086;2023-06-22T02:59:43;23.50;99.90
15765;DHT22;7983;50.744;7.086;2023-06-22T03:02:09;23.60;99.90
15765;DHT22;7983;50.744;7.086;2023-06-22T03:04:38;23.50;99.90
15765;DHT22;7983;50.744;7.086;2023-06-22T03:07:04;23.50;99.90
15765;DHT22;7983;50.744;7.086;2023-06-22T03:09:29;23.50;99.90
15765;DHT22;7983;50.744;7.086;2023-06-22T03:12:00;23.50;99.90
15765;DHT22;7983;50.744;7.086;2023-06-22T03:14:29;23.50;99.90
15765;DHT22;7983;50.744;7.086;2023-06-22T03:16:55;23.50;99.90
15765;DHT22;7983;50.744;7.086;2023-06-22T03:19:29;23.50;99.90
15765;DHT22;7983;50.744;7.086;2023-06-22T03:21:57;23.50;99.90
15765;DHT22;7983;50.744;7.086;2023-06-22T03:24:23;23.40;99.90
15765;DHT22;7983;50.744;7.086;2023-06-22T03:26:48;23.40;99.90
15765;DHT22;7983;50.744;7.086;2023-06-22T03:29:18;23.40;99.90
15765;DHT22;7983;50.744;7.086;2023-06-22T03:31:46;23.30;99.90
15765;DHT22;7983;50.744;7.086;2023-06-22T03:34:12;23.30;99.90
15765;DHT22;7983;50.744;7.086;2023-06-22T03:36:37;23.30;99.90
15765;DHT22;7983;50.744;7.086;2023-06-22T03:39:07;23.30;99.90
15765;DHT22;7983;50.744;7.086;2023-06-22T03:41:33;23.20;99.90
15765;DHT22;7983;50.744;7.086;2023-06-22T03:43:58;23.20;99.90
15765;DHT22;7983;50.744;7.086;2023-06-22T03:46:24;23.20;99.90
15765;DHT22;7983;50.744;7.086;2023-06-22T03:48:52;23.20;99.90
15765;DHT22;7983;50.744;7.086;2023-06-22T03:51:18;23.20;99.90
15765;DHT22;7983;50.744;7.086;2023-06-22T03:53:48;23.10;99.90
15765;DHT22;7983;50.744;7.086;2023-06-22T03:56:18;23.10;99.90
15765;DHT22;7983;50.744;7.086;2023-06-22T03:58:45;23.10;99.90
15765;DHT22;7983;50.744;7.086;2023-06-22T04:01:11;23.10;99.90
15765;DHT22;7983;50.744;7.086;2023-06-22T04:03:41;23.00;99.90
15765;DHT22;7983;50.744;7.086;2023-06-22T04:06:07;23.00;99.90
15765;DHT22;7983;50.744;7.086;2023-06-22T04:08:37;23.00;99.90
15765;DHT22;7983;50.744;7.086;2023-06-22T04:11:03;23.00;99.90
15765;DHT22;7983;50.744;7.086;2023-06-22T04:13:29;23.00;99.90
15765;DHT22;7983;50.744;7.086;2023-06-22T04:15:56;23.00;99.90
15765;DHT22;7983;50.744;7.086;2023-06-22T04:18:22;23.10;99.90
15765;DHT22;7983;50.744;7.086;2023-06-22T04:20:47;23.10;99.90
15765;DHT22;7983;50.744;7.086;2023-06-22T04:23:13;23.20;99.90
15765;DHT22;7983;50.744;7.086;2023-06-22T04:25:39;23.20;99.90
15765;DHT22;7983;50.744;7.086;2023-06-22T04:28:09;23.20;99.90
15765;DHT22;7983;50.744;7.086;2023-06-22T04:30:38;23.20;99.90
15765;DHT22;7983;50.744;7.086;2023-06-22T04:33:13;23.20;99.90
15765;DHT22;7983;50.744;7.086;2023-06-22T04:35:41;23.20;99.90
15765;DHT22;7983;50.744;7.086;2023-06-22T04:38:07;23.30;99.90
15765;DHT22;7983;50.744;7.086;2023-06-22T04:40:33;23.20;99.90
15765;DHT22;7983;50.744;7.086;2023-06-22T04:42:59;23.30;99.90
15765;DHT22;7983;50.744;7.086;2023-06-22T04:45:28;23.30;99.90
15765;DHT22;7983;50.744;7.086;2023-06-22T04:47:57;23.30;99.90
15765;DHT22;7983;50.744;7.086;2023-06-22T04:50:22;23.30;99.90
15765;DHT22;7983;50.744;7.086;2023-06-22T04:52:49;23.30;99.90
15765;DHT22;7983;50.744;7.086;2023-06-22T04:55:19;23.30;99.90
15765;DHT22;7983;50.744;7.086;2023-06-22T04:57:48;23.30;99.90
15765;DHT22;7983;50.744;7.086;2023-06-22T05:00:18;23.30;99.90
15765;DHT22;7983;50.744;7.086;2023-06-22T05:02:46;23.30;99.90
15765;DHT22;7983;50.744;7.086;2023-06-22T05:05:12;23.30;99.90
15765;DHT22;7983;50.744;7.086;2023-06-22T05:07:46;23.40;99.90
15765;DHT22;7983;50.744;7.086;2023-06-22T05:10:14;23.40;99.90
15765;DHT22;7983;50.744;7.086;2023-06-22T05:12:41;23.40;99.90
15765;DHT22;7983;50.744;7.086;2023-06-22T05:15:08;23.40;99.90
15765;DHT22;7983;50.744;7.086;2023-06-22T05:17:35;23.50;99.90
15765;DHT22;7983;50.744;7.086;2023-06-22T05:20:07;23.50;99.90
15765;DHT22;7983;50.744;7.086;2023-06-22T05:22:35;23.50;99.90
15765;DHT22;7983;50.744;7.086;2023-06-22T05:25:01;23.50;99.90
15765;DHT22;7983;50.744;7.086;2023-06-22T05:27:26;23.50;99.90
15765;DHT22;7983;50.744;7.086;2023-06-22T05:29:57;23.50;99.90
15765;DHT22;7983;50.744;7.086;2023-06-22T05:32:22;23.50;99.90
15765;DHT22;7983;50.744;7.086;2023-06-22T05:34:48;23.50;99.90
15765;DHT22;7983;50.744;7.086;2023-06-22T05:37:14;23.50;99.90
15765;DHT22;7983;50.744;7.086;2023-06-22T05:39:41;23.60;99.90
15765;DHT22;7983;50.744;7.086;2023-06-22T05:42:09;23.60;99.90
15765;DHT22;7983;50.744;7.086;2023-06-22T05:44:35;23.70;99.90
15765;DHT22;7983;50.744;7.086;2023-06-22T05:47:00;23.70;99.90
15765;DHT22;7983;50.744;7.086;2023-06-22T05:49:26;23.80;99.90
15765;DHT22;7983;50.744;7.086;2023-06-22T05:52:00;23.90;99.90
15765;DHT22;7983;50.744;7.086;2023-06-22T05:54:27;23.90;99.90
15765;DHT22;7983;50.744;7.086;2023-06-22T05:56:53;24.00;99.90
15765;DHT22;7983;50.744;7.086;2023-06-22T05:59:19;24.10;99.90
15765;DHT22;7983;50.744;7.086;2023-06-22T06:01:45;24.10;99.90
15765;DHT22;7983;50.744;7.086;2023-06-22T06:04:18;24.20;99.90
15765;DHT22;7983;50.744;7.086;2023-06-22T06:06:44;24.30;99.90
15765;DHT22;7983;50.744;7.086;2023-06-22T06:09:10;24.40;99.90
15765;DHT22;7983;50.744;7.086;2023-06-22T06:11:37;24.40;99.90
15765;DHT22;7983;50.744;7.086;2023-06-22T06:14:02;24.50;99.90
15765;DHT22;7983;50.744;7.086;2023-06-22T06:16:30;24.60;99.90
15765;DHT22;7983;50.744;7.086;2023-06-22T06:18:58;24.60;99.90
15765;DHT22;7983;50.744;7.086;2023-06-22T06:21:24;24.70;99.90
15765;DHT22;7983;50.744;7.086;2023-06-22T06:23:50;24.70;99.90
15765;DHT22;7983;50.744;7.086;2023-06-22T06:26:15;24.70;99.90
15765;DHT22;7983;50.744;7.086;2023-06-22T06:28:48;24.70;99.90
15765;DHT22;7983;50.744;7.086;2023-06-22T06:31:16;24.80;99.90
15765;DHT22;7983;50.744;7.086;2023-06-22T06:33:43;24.80;99.90
15765;DHT22;7983;50.744;7.086;2023-06-22T06:36:11;24.80;99.90
15765;DHT22;7983;50.744;7.086;2023-06-22T06:38:39;24.80;99.90
15765;DHT22;7983;50.744;7.086;2023-06-22T06:41:04;24.80;99.90
15765;DHT22;7983;50.744;7.086;2023-06-22T06:43:30;24.90;99.90
15765;DHT22;7983;50.744;7.086;2023-06-22T06:45:55;24.90;99.90
15765;DHT22;7983;50.744;7.086;2023-06-22T06:48:23;24.90;99.90
15765;DHT22;7983;50.744;7.086;2023-06-22T06:50:54;24.90;99.90
15765;DHT22;7983;50.744;7.086;2023-06-22T06:53:22;24.90;99.90
15765;DHT22;7983;50.744;7.086;2023-06-22T06:55:50;25.00;99.90
15765;DHT22;7983;50.744;7.086;2023-06-22T06:58:15;25.00;99.90
15765;DHT22;7983;50.744;7.086;2023-06-22T07:00:41;25.00;99.90
15765;DHT22;7983;50.744;7.086;2023-06-22T07:03:09;25.00;99.90
15765;DHT22;7983;50.744;7.086;2023-06-22T07:05:35;25.10;99.90
15765;DHT22;7983;50.744;7.086;2023-06-22T07:08:01;25.10;99.90
15765;DHT22;7983;50.744;7.086;2023-06-22T07:10:28;25.10;99.90
15765;DHT22;7983;50.744;7.086;2023-06-22T07:12:54;25.20;99.90
15765;DHT22;7983;50.744;7.086;2023-06-22T07:15:22;25.30;99.90
15765;DHT22;7983;50.744;7.086;2023-06-22T07:17:48;25.30;99.90
15765;DHT22;7983;50.744;7.086;2023-06-22T07:20:18;25.40;99.90
15765;DHT22;7983;50.744;7.086;2023-06-22T07:22:45;25.40;99.90
15765;DHT22;7983;50.744;7.086;2023-06-22T07:25:16;25.50;99.90
15765;DHT22;7983;50.744;7.086;2023-06-22T07:27:58;25.60;99.90
15765;DHT22;7983;50.744;7.086;2023-06-22T07:30:26;25.70;99.90
15765;DHT22;7983;50.744;7.086;2023-06-22T07:32:52;25.70;99.90
15765;DHT22;7983;50.744;7.086;2023-06-22T07:35:18;25.80;99.90
15765;DHT22;7983;50.744;7.086;2023-06-22T07:37:44;25.90;99.90
15765;DHT22;7983;50.744;7.086;2023-06-22T07:40:12;25.90;99.90
15765;DHT22;7983;50.744;7.086;2023-06-22T07:42:38;26.00;99.90
15765;DHT22;7983;50.744;7.086;2023-06-22T07:45:04;26.10;99.90
15765;DHT22;7983;50.744;7.086;2023-06-22T07:47:34;26.10;99.90
15765;DHT22;7983;50.744;7.086;2023-06-22T07:50:01;26.20;99.90
15765;DHT22;7983;50.744;7.086;2023-06-22T07:52:30;26.30;99.90
15765;DHT22;7983;50.744;7.086;2023-06-22T07:54:58;26.40;99.90
15765;DHT22;7983;50.744;7.086;2023-06-22T07:57:24;26.40;99.90
15765;DHT22;7983;50.744;7.086;2023-06-22T07:59:59;26.50;99.90
15765;DHT22;7983;50.744;7.086;2023-06-22T08:02:26;26.50;99.90
15765;DHT22;7983;50.744;7.086;2023-06-22T08:04:52;26.50;99.90
15765;DHT22;7983;50.744;7.086;2023-06-22T08:07:17;26.50;99.90
15765;DHT22;7983;50.744;7.086;2023-06-22T08:09:48;26.50;99.90
15765;DHT22;7983;50.744;7.086;2023-06-22T08:12:15;26.60;99.90
15765;DHT22;7983;50.744;7.086;2023-06-22T08:14:42;26.70;99.90
15765;DHT22;7983;50.744;7.086;2023-06-22T08:17:11;26.60;99.90
15765;DHT22;7983;50.744;7.086;2023-06-22T08:19:37;26.70;99.90
15765;DHT22;7983;50.744;7.086;2023-06-22T08:22:03;26.70;99.90
15765;DHT22;7983;50.744;7.086;2023-06-22T08:24:32;26.80;99.90
15765;DHT22;7983;50.744;7.086;2023-06-22T08:26:57;26.80;99.90
15765;DHT22;7983;50.744;7.086;2023-06-22T08:29:25;26.90;99.90
15765;DHT22;7983;50.744;7.086;2023-06-22T08:31:55;26.90;99.90
15765;DHT22;7983;50.744;7.086;2023-06-22T08:34:21;27.00;99.90
15765;DHT22;7983;50.744;7.086;2023-06-22T08:36:50;27.00;99.90
15765;DHT22;7983;50.744;7.086;2023-06-22T08:39:21;27.10;99.90
15765;DHT22;7983;50.744;7.086;2023-06-22T08:41:48;27.20;99.90
15765;DHT22;7983;50.744;7.086;2023-06-22T08:44:18;27.30;99.90
15765;DHT22;7983;50.744;7.086;2023-06-22T08:46:46;27.40;99.90
15765;DHT22;7983;50.744;7.086;2023-06-22T08:49:12;27.50;99.90
15765;DHT22;7983;50.744;7.086;2023-06-22T08:51:40;27.60;99.90
15765;DHT22;7983;50.744;7.086;2023-06-22T08:54:09;27.60;99.90
15765;DHT22;7983;50.744;7.086;2023-06-22T08:56:35;27.70;99.90
15765;DHT22;7983;50.744;7.086;2023-06-22T08:59:03;27.80;99.90
15765;DHT22;7983;50.744;7.086;2023-06-22T09:01:35;27.90;99.90
15765;DHT22;7983;50.744;7.086;2023-06-22T09:04:03;28.00;99.90
15765;DHT22;7983;50.744;7.086;2023-06-22T09:06:31;28.00;99.90
15765;DHT22;7983;50.744;7.086;2023-06-22T09:08:57;28.10;99.90
15765;DHT22;7983;50.744;7.086;2023-06-22T09:11:25;28.20;99.90
15765;DHT22;7983;50.744;7.086;2023-06-22T09:13:51;28.20;99.90
15765;DHT22;7983;50.744;7.086;2023-06-22T09:16:18;28.30;99.90
15765;DHT22;7983;50.744;7.086;2023-06-22T09:18:47;28.40;99.90
15765;DHT22;7983;50.744;7.086;2023-06-22T09:21:15;28.50;99.90
15765;DHT22;7983;50.744;7.086;2023-06-22T09:23:41;28.60;99.90
15765;DHT22;7983;50.744;7.086;2023-06-22T09:26:09;28.70;99.90
15765;DHT22;7983;50.744;7.086;2023-06-22T09:28:35;28.80;99.90
15765;DHT22;7983;50.744;7.086;2023-06-22T09:31:00;28.90;99.90
15765;DHT22;7983;50.744;7.086;2023-06-22T09:33:26;29.00;99.90
15765;DHT22;7983;50.744;7.086;2023-06-22T09:35:52;29.10;99.90
15765;DHT22;7983;50.744;7.086;2023-06-22T09:38:17;29.20;99.90
15765;DHT22;7983;50.744;7.086;2023-06-22T09:40:43;29.30;99.90
15765;DHT22;7983;50.744;7.086;2023-06-22T09:43:11;29.50;99.90
15765;DHT22;7983;50.744;7.086;2023-06-22T09:45:37;29.60;99.90
15765;DHT22;7983;50.744;7.086;2023-06-22T09:48:05;29.70;99.90
15765;DHT22;7983;50.744;7.086;2023-06-22T09:50:31;29.70;99.90
15765;DHT22;7983;50.744;7.086;2023-06-22T09:52:57;29.70;99.90
15765;DHT22;7983;50.744;7.086;2023-06-22T09:55:26;29.70;99.90
15765;DHT22;7983;50.744;7.086;2023-06-22T09:57:52;29.70;99.90
15765;DHT22;7983;50.744;7.086;2023-06-22T10:00:22;29.60;99.90
15765;DHT22;7983;50.744;7.086;2023-06-22T10:02:48;29.50;99.90
15765;DHT22;7983;50.744;7.086;2023-06-22T10:05:16;29.40;99.90
15765;DHT22;7983;50.744;7.086;2023-06-22T10:07:42;29.30;99.90
15765;DHT22;7983;50.744;7.086;2023-06-22T10:10:09;29.20;99.90
15765;DHT22;7983;50.744;7.086;2023-06-22T10:12:35;29.10;99.90
15765;DHT22;7983;50.744;7.086;2023-06-22T10:15:03;29.00;99.90
15765;DHT22;7983;50.744;7.086;2023-06-22T10:17:29;28.90;99.90
15765;DHT22;7983;50.744;7.086;2023-06-22T10:19:54;28.80;99.90
15765;DHT22;7983;50.744;7.086;2023-06-22T10:22:23;28.70;99.90
15765;DHT22;7983;50.744;7.086;2023-06-22T10:24:48;28.60;99.90
15765;DHT22;7983;50.744;7.086;2023-06-22T10:27:14;28.40;99.90
15765;DHT22;7983;50.744;7.086;2023-06-22T10:29:40;28.40;99.90
15765;DHT22;7983;50.744;7.086;2023-06-22T10:32:06;28.30;99.90
15765;DHT22;7983;50.744;7.086;2023-06-22T10:34:32;28.20;99.90
15765;DHT22;7983;50.744;7.086;2023-06-22T10:36:58;28.10;99.90
15765;DHT22;7983;50.744;7.086;2023-06-22T10:39:26;28.10;99.90
15765;DHT22;7983;50.744;7.086;2023-06-22T10:41:54;27.90;99.90
15765;DHT22;7983;50.744;7.086;2023-06-22T10:44:20;27.80;99.90
15765;DHT22;7983;50.744;7.086;2023-06-22T10:46:46;27.70;99.90
15765;DHT22;7983;50.744;7.086;2023-06-22T10:49:14;27.50;99.90
15765;DHT22;7983;50.744;7.086;2023-06-22T10:51:40;27.30;99.90
15765;DHT22;7983;50.744;7.086;2023-06-22T10:54:06;27.00;99.90
15765;DHT22;7983;50.744;7.086;2023-06-22T10:56:32;26.70;99.90
15765;DHT22;7983;50.744;7.086;2023-06-22T10:58:59;26.40;99.90
15765;DHT22;7983;50.744;7.086;2023-06-22T11:01:27;26.00;99.90
15765;DHT22;7983;50.744;7.086;2023-06-22T11:03:56;25.60;99.90
15765;DHT22;7983;50.744;7.086;2023-06-22T11:06:22;25.30;99.90
15765;DHT22;7983;50.744;7.086;2023-06-22T11:08:48;25.00;99.90
15765;DHT22;7983;50.744;7.086;2023-06-22T11:11:15;24.80;99.90
15765;DHT22;7983;50.744;7.086;2023-06-22T11:13:49;24.60;99.90
15765;DHT22;7983;50.744;7.086;2023-06-22T11:16:15;24.40;99.90
15765;DHT22;7983;50.744;7.086;2023-06-22T11:18:43;24.30;99.90
15765;DHT22;7983;50.744;7.086;2023-06-22T11:21:11;24.20;99.90
15765;DHT22;7983;50.744;7.086;2023-06-22T11:23:36;24.10;99.90
15765;DHT22;7983;50.744;7.086;2023-06-22T11:26:04;23.90;99.90
15765;DHT22;7983;50.744;7.086;2023-06-22T11:28:30;23.90;99.90
15765;DHT22;7983;50.744;7.086;2023-06-22T11:30:55;23.90;99.90
15765;DHT22;7983;50.744;7.086;2023-06-22T11:33:21;23.90;99.90
15765;DHT22;7983;50.744;7.086;2023-06-22T11:35:49;23.90;99.90
15765;DHT22;7983;50.744;7.086;2023-06-22T11:38:15;23.90;99.90
15765;DHT22;7983;50.744;7.086;2023-06-22T11:40:40;24.00;99.90
15765;DHT22;7983;50.744;7.086;2023-06-22T11:43:06;24.20;99.90
15765;DHT22;7983;50.744;7.086;2023-06-22T11:45:34;24.30;99.90
15765;DHT22;7983;50.744;7.086;2023-06-22T11:47:59;24.50;99.90
15765;DHT22;7983;50.744;7.086;2023-06-22T11:50:25;24.80;99.90
15765;DHT22;7983;50.744;7.086;2023-06-22T11:52:50;25.00;99.90
15765;DHT22;7983;50.744;7.086;2023-06-22T11:55:18;25.20;99.90
15765;DHT22;7983;50.744;7.086;2023-06-22T11:57:55;25.30;99.90
15765;DHT22;7983;50.744;7.086;2023-06-22T12:00:23;25.40;99.90
15765;DHT22;7983;50.744;7.086;2023-06-22T12:02:50;25.50;99.90
15765;DHT22;7983;50.744;7.086;2023-06-22T12:05:24;25.50;99.90
15765;DHT22;7983;50.744;7.086;2023-06-22T12:07:52;25.50;99.90
15765;DHT22;7983;50.744;7.086;2023-06-22T12:10:18;25.50;99.90
15765;DHT22;7983;50.744;7.086;2023-06-22T12:12:44;25.50;99.90
15765;DHT22;7983;50.744;7.086;2023-06-22T12:15:12;25.50;99.90
15765;DHT22;7983;50.744;7.086;2023-06-22T12:17:38;25.50;99.90
15765;DHT22;7983;50.744;7.086;2023-06-22T12:20:04;25.50;99.90
15765;DHT22;7983;50.744;7.086;2023-06-22T12:22:34;25.50;99.90
15765;DHT22;7983;50.744;7.086;2023-06-22T12:25:00;25.40;99.90
15765;DHT22;7983;50.744;7.086;2023-06-22T12:27:27;25.40;99.90
15765;DHT22;7983;50.744;7.086;2023-06-22T12:29:55;25.40;99.90
15765;DHT22;7983;50.744;7.086;2023-06-22T12:32:20;25.40;99.90
15765;DHT22;7983;50.744;7.086;2023-06-22T12:34:46;25.50;99.90
15765;DHT22;7983;50.744;7.086;2023-06-22T12:37:11;25.70;99.90
15765;DHT22;7983;50.744;7.086;2023-06-22T12:39:40;25.90;99.90
15765;DHT22;7983;50.744;7.086;2023-06-22T12:42:06;26.10;99.90
15765;DHT22;7983;50.744;7.086;2023-06-22T12:44:37;26.30;99.90
15765;DHT22;7983;50.744;7.086;2023-06-22T12:47:09;26.60;99.90
15765;DHT22;7983;50.744;7.086;2023-06-22T12:49:35;26.80;99.90
15765;DHT22;7983;50.744;7.086;2023-06-22T12:52:02;27.00;99.90
15765;DHT22;7983;50.744;7.086;2023-06-22T12:54:28;27.10;99.90
15765;DHT22;7983;50.744;7.086;2023-06-22T12:57:01;27.20;99.90
15765;DHT22;7983;50.744;7.086;2023-06-22T12:59:27;27.30;99.90
15765;DHT22;7983;50.744;7.086;2023-06-22T13:01:54;27.40;99.90
15765;DHT22;7983;50.744;7.086;2023-06-22T13:04:22;27.40;99.90
15765;DHT22;7983;50.744;7.086;2023-06-22T13:06:48;27.50;99.90
15765;DHT22;7983;50.744;7.086;2023-06-22T13:09:15;27.60;99.90
15765;DHT22;7983;50.744;7.086;2023-06-22T13:11:41;27.70;99.90
15765;DHT22;7983;50.744;7.086;2023-06-22T13:14:09;27.80;99.90
15765;DHT22;7983;50.744;7.086;2023-06-22T13:16:38;28.00;99.90
15765;DHT22;7983;50.744;7.086;2023-06-22T13:19:03;28.20;99.90
15765;DHT22;7983;50.744;7.086;2023-06-22T13:21:30;28.40;99.90
15765;DHT22;7983;50.744;7.086;2023-06-22T13:23:56;28.60;99.90
15765;DHT22;7983;50.744;7.086;2023-06-22T13:26:21;28.80;99.90
15765;DHT22;7983;50.744;7.086;2023-06-22T13:28:47;29.00;99.90
15765;DHT22;7983;50.744;7.086;2023-06-22T13:31:15;29.10;99.90
15765;DHT22;7983;50.744;7.086;2023-06-22T13:33:41;29.20;99.90
15765;DHT22;7983;50.744;7.086;2023-06-22T13:36:09;29.40;99.90
15765;DHT22;7983;50.744;7.086;2023-06-22T13:38:35;29.50;99.90
15765;DHT22;7983;50.744;7.086;2023-06-22T13:41:04;29.60;99.90
15765;DHT22;7983;50.744;7.086;2023-06-22T13:43:32;29.80;99.90
15765;DHT22;7983;50.744;7.086;2023-06-22T13:45:58;29.90;99.90
15765;DHT22;7983;50.744;7.086;2023-06-22T13:48:23;30.10;99.90
15765;DHT22;7983;50.744;7.086;2023-06-22T13:50:53;30.20;99.90
15765;DHT22;7983;50.744;7.086;2023-06-22T13:53:19;30.30;99.90
15765;DHT22;7983;50.744;7.086;2023-06-22T13:55:49;30.40;99.90
15765;DHT22;7983;50.744;7.086;2023-06-22T13:58:19;30.50;99.90
15765;DHT22;7983;50.744;7.086;2023-06-22T14:00:50;30.60;99.90
15765;DHT22;7983;50.744;7.086;2023-06-22T14:03:15;30.60;99.90
15765;DHT22;7983;50.744;7.086;2023-06-22T14:05:42;30.50;99.90
15765;DHT22;7983;50.744;7.086;2023-06-22T14:08:08;30.40;99.90
15765;DHT22;7983;50.744;7.086;2023-06-22T14:10:36;30.30;99.90
15765;DHT22;7983;50.744;7.086;2023-06-22T14:13:02;30.20;99.90
15765;DHT22;7983;50.744;7.086;2023-06-22T14:15:31;30.00;99.90
15765;DHT22;7983;50.744;7.086;2023-06-22T14:17:57;29.70;99.90
15765;DHT22;7983;50.744;7.086;2023-06-22T14:20:22;29.60;99.90
15765;DHT22;7983;50.744;7.086;2023-06-22T14:22:48;29.40;99.90
15765;DHT22;7983;50.744;7.086;2023-06-22T14:25:14;29.10;99.90
15765;DHT22;7983;50.744;7.086;2023-06-22T14:27:41;29.00;99.90
15765;DHT22;7983;50.744;7.086;2023-06-22T14:30:07;28.80;99.90
15765;DHT22;7983;50.744;7.086;2023-06-22T14:32:35;28.60;99.90
15765;DHT22;7983;50.744;7.086;2023-06-22T14:35:01;28.40;99.90
15765;DHT22;7983;50.744;7.086;2023-06-22T14:37:27;28.20;99.90
15765;DHT22;7983;50.744;7.086;2023-06-22T14:39:52;28.10;99.90
15765;DHT22;7983;50.744;7.086;2023-06-22T14:42:18;27.90;99.90
15765;DHT22;7983;50.744;7.086;2023-06-22T14:44:43;27.70;99.90
15765;DHT22;7983;50.744;7.086;2023-06-22T14:47:10;27.40;99.90
15765;DHT22;7983;50.744;7.086;2023-06-22T14:49:35;27.20;99.90
15765;DHT22;7983;50.744;7.086;2023-06-22T14:52:02;26.90;99.90
15765;DHT22;7983;50.744;7.086;2023-06-22T14:54:27;26.60;99.90
15765;DHT22;7983;50.744;7.086;2023-06-22T14:56:53;26.40;99.90
15765;DHT22;7983;50.744;7.086;2023-06-22T14:59:21;26.10;99.90
15765;DHT22;7983;50.744;7.086;2023-06-22T15:01:51;25.80;99.90
15765;DHT22;7983;50.744;7.086;2023-06-22T15:04:17;25.50;99.90
15765;DHT22;7983;50.744;7.086;2023-06-22T15:06:42;25.30;99.90
15765;DHT22;7983;50.744;7.086;2023-06-22T15:09:10;25.10;99.90
15765;DHT22;7983;50.744;7.086;2023-06-22T15:11:36;24.90;99.90
15765;DHT22;7983;50.744;7.086;2023-06-22T15:14:01;24.70;99.90
15765;DHT22;7983;50.744;7.086;2023-06-22T15:16:27;24.50;99.90
15765;DHT22;7983;50.744;7.086;2023-06-22T15:18:57;24.40;99.90
15765;DHT22;7983;50.744;7.086;2023-06-22T15:21:23;24.20;99.90
15765;DHT22;7983;50.744;7.086;2023-06-22T15:23:49;24.10;99.90
15765;DHT22;7983;50.744;7.086;2023-06-22T15:26:16;23.90;99.90
15765;DHT22;7983;50.744;7.086;2023-06-22T15:28:42;23.90;99.90
15765;DHT22;7983;50.744;7.086;2023-06-22T15:31:08;23.80;99.90
15765;DHT22;7983;50.744;7.086;2023-06-22T15:33:34;23.70;99.90
15765;DHT22;7983;50.744;7.086;2023-06-22T15:35:59;23.70;99.90
15765;DHT22;7983;50.744;7.086;2023-06-22T15:38:29;23.60;99.90
15765;DHT22;7983;50.744;7.086;2023-06-22T15:40:56;23.60;99.90
15765;DHT22;7983;50.744;7.086;2023-06-22T15:43:23;23.60;99.90
15765;DHT22;7983;50.744;7.086;2023-06-22T15:45:52;23.60;99.90
15765;DHT22;7983;50.744;7.086;2023-06-22T15:48:20;23.60;99.90
15765;DHT22;7983;50.744;7.086;2023-06-22T15:50:45;23.70;99.90